Time;durP1;ratioP1;P1;durP2;ratioP2;P2;SDS_P1;SDS_P2;PMS_P1;PMS_P2;Temp;Humidity;BMP_temperature;BMP_pressure;BME280_temperature;BME280_humidity;BME280_pressure;Samples;Min_cycle;Max_cycle;Signal;HPM_P1;HPM_P2
2021/09/08 00:01:12;;;;;;;9.48;4.90;;;;;;;;;;4973590;28;20110;-72
2021/09/08 00:03:38;;;;;;;9.32;4.60;;;;;;;;;;4973586;28;20106;-72
2021/09/08 00:06:07;;;;;;;8.90;4.63;;;;;;;;;;4975335;28;20078;-71
2021/09/08 00:08:33;;;;;;;8.88;4.63;;;;;;;;;;4961777;28;20065;-70
2021/09/08 00:10:59;;;;;;;9.05;4.55;;;;;;;;;;4972155;28;20129;-72
2021/09/08 00:13:25;;;;;;;11.95;4.95;;;;;;;;;;4974532;28;20515;-71
2021/09/08 00:15:55;;;;;;;11.32;4.78;;;;;;;;;;4975219;28;20051;-73
2021/09/08 00:18:21;;;;;;;8.82;5.00;;;;;;;;;;4978195;28;20126;-70
2021/09/08 00:20:47;;;;;;;9.63;4.97;;;;;;;;;;4970772;28;20069;-70
2021/09/08 00:23:13;;;;;;;7.25;5.15;;;;;;;;;;4973968;28;20019;-72
2021/09/08 00:25:40;;;;;;;11.70;5.70;;;;;;;;;;4975509;28;20054;-72
2021/09/08 00:28:06;;;;;;;14.27;5.43;;;;;;;;;;4962296;28;20029;-69
2021/09/08 00:30:32;;;;;;;8.77;5.13;;;;;;;;;;4970736;28;20034;-71
2021/09/08 00:32:58;;;;;;;8.82;5.15;;;;;;;;;;4975096;28;20480;-73
2021/09/08 00:35:25;;;;;;;10.10;5.40;;;;;;;;;;4971947;28;20137;-71
2021/09/08 00:37:53;;;;;;;10.07;5.60;;;;;;;;;;4974836;28;20034;-72
2021/09/08 00:40:19;;;;;;;10.80;5.20;;;;;;;;;;4973482;28;20115;-71
2021/09/08 00:42:45;;;;;;;7.68;5.03;;;;;;;;;;4973207;28;20062;-71
2021/09/08 00:45:13;;;;;;;11.27;5.28;;;;;;;;;;4974822;28;20384;-71
2021/09/08 00:47:39;;;;;;;11.07;5.38;;;;;;;;;;4975045;28;20019;-71
2021/09/08 00:50:05;;;;;;;9.73;5.63;;;;;;;;;;4966466;28;20122;-70
2021/09/08 00:52:31;;;;;;;11.18;5.45;;;;;;;;;;4974200;28;20054;-71
2021/09/08 00:54:58;;;;;;;10.93;5.53;;;;;;;;;;4974653;28;20747;-72
2021/09/08 00:57:24;;;;;;;11.90;5.32;;;;;;;;;;4974629;28;20034;-73
2021/09/08 00:59:50;;;;;;;10.15;4.95;;;;;;;;;;4972674;28;20027;-71
2021/09/08 01:02:16;;;;;;;10.10;4.47;;;;;;;;;;4964259;28;20042;-69
2021/09/08 01:04:43;;;;;;;8.48;4.55;;;;;;;;;;4972122;28;20026;-70
2021/09/08 01:07:09;;;;;;;10.43;4.72;;;;;;;;;;4971612;28;20061;-71
2021/09/08 01:09:36;;;;;;;10.80;4.95;;;;;;;;;;4981130;28;20019;-73
2021/09/08 01:12:02;;;;;;;7.60;4.28;;;;;;;;;;4969695;28;20047;-72
2021/09/08 01:14:28;;;;;;;8.05;4.40;;;;;;;;;;4972556;28;20109;-71
2021/09/08 01:16:56;;;;;;;10.98;4.35;;;;;;;;;;4974095;28;20033;-72
2021/09/08 01:19:22;;;;;;;11.98;4.22;;;;;;;;;;4972401;28;20362;-70
2021/09/08 01:21:49;;;;;;;8.30;3.95;;;;;;;;;;4964128;28;20460;-72
2021/09/08 01:24:15;;;;;;;7.05;4.35;;;;;;;;;;4966459;28;20413;-72
2021/09/08 01:26:42;;;;;;;7.78;4.55;;;;;;;;;;4946372;28;20058;-71
2021/09/08 01:29:09;;;;;;;8.38;4.22;;;;;;;;;;4968724;28;20113;-72
2021/09/08 01:31:37;;;;;;;9.40;4.15;;;;;;;;;;4972137;28;20035;-72
2021/09/08 01:34:04;;;;;;;7.15;3.78;;;;;;;;;;4966507;28;20066;-72
2021/09/08 01:36:36;;;;;;;6.80;3.97;;;;;;;;;;4958390;28;20113;-72
2021/09/08 01:39:03;;;;;;;8.73;4.55;;;;;;;;;;4966751;28;20037;-72
2021/09/08 01:41:29;;;;;;;10.32;4.53;;;;;;;;;;4971667;28;20062;-70
2021/09/08 01:43:55;;;;;;;5.93;4.00;;;;;;;;;;4972881;28;20074;-69
2021/09/08 01:46:22;;;;;;;9.73;4.20;;;;;;;;;;4960341;28;20067;-72
2021/09/08 01:48:50;;;;;;;9.05;4.40;;;;;;;;;;4972354;28;20041;-69
2021/09/08 01:51:17;;;;;;;6.80;4.00;;;;;;;;;;4973547;28;20167;-72
2021/09/08 01:53:47;;;;;;;8.15;4.00;;;;;;;;;;4976565;28;20026;-72
2021/09/08 01:56:17;;;;;;;9.45;4.43;;;;;;;;;;4966214;28;20085;-70
2021/09/08 01:58:44;;;;;;;9.68;3.95;;;;;;;;;;4971401;28;20030;-72
2021/09/08 02:01:13;;;;;;;7.97;4.07;;;;;;;;;;4963298;28;20083;-72
2021/09/08 02:03:44;;;;;;;8.90;4.18;;;;;;;;;;4957650;28;20396;-70
2021/09/08 02:06:23;;;;;;;9.50;3.95;;;;;;;;;;4966627;28;20018;-72
2021/09/08 02:08:49;;;;;;;8.07;3.97;;;;;;;;;;4965463;28;20034;-72
2021/09/08 02:11:15;;;;;;;8.05;3.90;;;;;;;;;;4972969;28;20078;-69
2021/09/08 02:13:41;;;;;;;6.95;3.75;;;;;;;;;;4972958;28;20491;-67
2021/09/08 02:16:11;;;;;;;7.43;4.07;;;;;;;;;;4974544;28;20118;-72
2021/09/08 02:18:37;;;;;;;15.15;4.30;;;;;;;;;;4965534;28;20023;-71
2021/09/08 02:24:19;;;;;;;8.57;3.88;;;;;;;;;;4970952;28;20041;-68
2021/09/08 02:26:49;;;;;;;10.05;4.03;;;;;;;;;;4978918;28;20026;-71
2021/09/08 02:29:15;;;;;;;7.03;4.05;;;;;;;;;;4978623;28;20027;-72
2021/09/08 02:31:41;;;;;;;8.52;3.88;;;;;;;;;;4976032;28;20031;-71
2021/09/08 02:34:07;;;;;;;11.68;3.78;;;;;;;;;;4971846;28;20081;-68
2021/09/08 02:36:33;;;;;;;9.93;3.65;;;;;;;;;;4979812;28;20026;-71
2021/09/08 02:39:00;;;;;;;7.20;3.70;;;;;;;;;;4979148;28;20035;-70
2021/09/08 02:41:26;;;;;;;9.50;4.18;;;;;;;;;;4963284;28;20035;-72
2021/09/08 02:43:52;;;;;;;8.85;4.18;;;;;;;;;;4979048;28;20555;-71
2021/09/08 02:46:19;;;;;;;6.38;3.95;;;;;;;;;;4976990;28;20038;-71
2021/09/08 02:48:45;;;;;;;10.52;4.18;;;;;;;;;;4978997;28;20440;-72
2021/09/08 02:51:11;;;;;;;7.28;4.18;;;;;;;;;;4978198;28;20039;-71
2021/09/08 02:53:37;;;;;;;7.55;4.50;;;;;;;;;;4979243;28;20078;-71
2021/09/08 02:56:03;;;;;;;9.25;3.88;;;;;;;;;;4970522;28;20039;-69
2021/09/08 02:58:33;;;;;;;9.85;4.10;;;;;;;;;;4977270;28;20030;-72
2021/09/08 03:00:59;;;;;;;8.60;4.03;;;;;;;;;;4977265;28;20121;-72
2021/09/08 03:03:25;;;;;;;6.85;3.95;;;;;;;;;;4974518;28;20042;-72
2021/09/08 03:05:52;;;;;;;8.25;3.97;;;;;;;;;;4978041;28;20034;-71
2021/09/08 03:08:18;;;;;;;6.53;4.03;;;;;;;;;;4977398;28;20023;-71
2021/09/08 03:10:45;;;;;;;8.82;3.72;;;;;;;;;;4977337;28;20026;-70
2021/09/08 03:13:15;;;;;;;11.70;3.85;;;;;;;;;;4978254;28;20039;-72
2021/09/08 03:15:41;;;;;;;10.70;4.25;;;;;;;;;;4977853;28;20496;-71
2021/09/08 03:18:07;;;;;;;8.40;3.90;;;;;;;;;;4972879;28;20390;-67
2021/09/08 03:20:34;;;;;;;7.18;4.45;;;;;;;;;;4969018;28;20035;-68
2021/09/08 03:23:00;;;;;;;7.07;3.85;;;;;;;;;;4972107;28;20075;-69
2021/09/08 03:25:29;;;;;;;8.00;3.95;;;;;;;;;;4975888;28;20027;-70
2021/09/08 03:27:56;;;;;;;5.95;3.63;;;;;;;;;;4978959;28;20034;-72
2021/09/08 03:30:22;;;;;;;8.77;4.00;;;;;;;;;;4978368;28;20082;-71
2021/09/08 03:32:50;;;;;;;8.30;3.80;;;;;;;;;;4975770;28;20106;-70
2021/09/08 03:35:17;;;;;;;9.38;3.78;;;;;;;;;;4951536;28;20082;-72
2021/09/08 03:37:43;;;;;;;8.82;3.70;;;;;;;;;;4976018;28;20110;-71
2021/09/08 03:40:09;;;;;;;7.05;3.83;;;;;;;;;;4975382;28;20030;-71
2021/09/08 03:42:36;;;;;;;7.28;3.70;;;;;;;;;;4974001;28;20035;-71
2021/09/08 03:45:02;;;;;;;5.55;3.45;;;;;;;;;;4971133;28;20481;-70
2021/09/08 03:47:28;;;;;;;6.55;3.55;;;;;;;;;;4976112;28;20058;-72
2021/09/08 03:49:55;;;;;;;10.07;3.55;;;;;;;;;;4966978;28;20034;-70
2021/09/08 03:52:21;;;;;;;8.57;3.67;;;;;;;;;;4969583;28;20039;-67
2021/09/08 03:54:47;;;;;;;8.07;3.70;;;;;;;;;;4968785;28;20027;-72
2021/09/08 03:57:13;;;;;;;9.13;4.13;;;;;;;;;;4975749;28;20054;-72
2021/09/08 03:59:39;;;;;;;6.93;3.97;;;;;;;;;;4981793;28;20026;-72
2021/09/08 04:02:05;;;;;;;8.65;4.50;;;;;;;;;;4972679;28;20504;-72
2021/09/08 04:04:31;;;;;;;13.25;4.15;;;;;;;;;;4967291;28;20063;-71
2021/09/08 04:06:58;;;;;;;13.52;4.00;;;;;;;;;;4971827;28;20034;-67
2021/09/08 04:09:24;;;;;;;6.82;3.90;;;;;;;;;;4975658;28;20019;-70
2021/09/08 04:11:50;;;;;;;8.45;3.70;;;;;;;;;;4974676;28;20500;-70
2021/09/08 04:14:16;;;;;;;6.03;3.35;;;;;;;;;;4976758;28;20026;-70
2021/09/08 04:16:42;;;;;;;13.07;3.92;;;;;;;;;;4965228;28;20388;-69
2021/09/08 04:19:08;;;;;;;7.72;3.78;;;;;;;;;;4972421;28;20090;-71
2021/09/08 04:21:34;;;;;;;9.95;3.60;;;;;;;;;;4976984;28;20022;-73
2021/09/08 04:24:05;;;;;;;7.05;3.45;;;;;;;;;;4979145;28;20357;-72
2021/09/08 04:26:31;;;;;;;4.22;3.17;;;;;;;;;;4973708;28;20073;-72
2021/09/08 04:28:57;;;;;;;6.05;3.53;;;;;;;;;;4974316;28;20029;-73
2021/09/08 04:31:23;;;;;;;9.80;3.90;;;;;;;;;;4969707;28;20067;-72
2021/09/08 04:33:49;;;;;;;6.35;3.67;;;;;;;;;;4967102;28;20046;-73
2021/09/08 04:36:15;;;;;;;8.70;3.50;;;;;;;;;;4974423;28;20113;-68
2021/09/08 04:38:45;;;;;;;9.82;3.58;;;;;;;;;;4973215;28;20034;-72
2021/09/08 04:41:11;;;;;;;14.50;3.70;;;;;;;;;;4972396;28;20126;-67
2021/09/08 04:43:37;;;;;;;8.43;3.70;;;;;;;;;;4972046;28;20034;-69
2021/09/08 04:46:03;;;;;;;10.15;3.80;;;;;;;;;;4968394;28;20031;-68
2021/09/08 04:48:29;;;;;;;7.82;3.50;;;;;;;;;;4968935;28;20022;-68
2021/09/08 04:50:55;;;;;;;5.10;3.45;;;;;;;;;;4968326;28;20026;-68
2021/09/08 04:53:21;;;;;;;8.65;3.50;;;;;;;;;;4964311;28;20035;-73
2021/09/08 04:55:47;;;;;;;6.00;3.75;;;;;;;;;;4973672;28;20027;-70
2021/09/08 04:58:14;;;;;;;8.95;3.85;;;;;;;;;;4961817;28;20034;-72
2021/09/08 05:00:42;;;;;;;13.98;3.92;;;;;;;;;;4972723;28;20038;-67
2021/09/08 05:03:08;;;;;;;5.65;3.70;;;;;;;;;;4973218;28;20026;-71
2021/09/08 05:05:35;;;;;;;9.25;4.10;;;;;;;;;;4983345;28;20042;-67
2021/09/08 05:08:01;;;;;;;7.05;3.45;;;;;;;;;;4970369;28;20023;-69
2021/09/08 05:10:27;;;;;;;11.35;4.00;;;;;;;;;;4967310;28;20043;-73
2021/09/08 05:12:53;;;;;;;64.28;5.93;;;;;;;;;;4971238;28;20048;-73
2021/09/08 05:15:19;;;;;;;10.93;3.97;;;;;;;;;;4974610;28;20031;-73
2021/09/08 05:17:45;;;;;;;9.55;3.80;;;;;;;;;;4971957;28;20026;-72
2021/09/08 05:20:27;;;;;;;8.27;3.80;;;;;;;;;;4974154;28;20034;-71
2021/09/08 05:22:53;;;;;;;19.17;4.43;;;;;;;;;;4975376;28;20098;-70
2021/09/08 05:25:19;;;;;;;11.50;3.92;;;;;;;;;;4969262;28;20030;-72
2021/09/08 05:27:45;;;;;;;11.20;4.00;;;;;;;;;;4968543;28;20034;-73
2021/09/08 05:30:11;;;;;;;6.75;3.78;;;;;;;;;;4972579;28;20031;-68
2021/09/08 05:32:38;;;;;;;9.65;3.60;;;;;;;;;;4963952;28;20057;-78
2021/09/08 05:35:04;;;;;;;8.38;4.05;;;;;;;;;;4974415;28;20552;-65
2021/09/08 05:37:30;;;;;;;10.02;4.07;;;;;;;;;;4973416;28;20035;-64
2021/09/08 05:39:56;;;;;;;7.85;3.70;;;;;;;;;;4970297;28;20027;-72
2021/09/08 05:42:22;;;;;;;16.27;4.30;;;;;;;;;;4973817;28;20384;-66
2021/09/08 05:44:48;;;;;;;13.45;3.80;;;;;;;;;;4973504;28;20349;-68
2021/09/08 05:47:14;;;;;;;28.08;4.40;;;;;;;;;;4973755;28;20106;-73
2021/09/08 05:49:40;;;;;;;15.68;4.22;;;;;;;;;;4972083;28;20031;-73
2021/09/08 05:52:06;;;;;;;13.32;4.18;;;;;;;;;;4973636;28;20037;-67
2021/09/08 05:54:32;;;;;;;8.95;4.28;;;;;;;;;;4972644;28;20027;-66
2021/09/08 05:56:58;;;;;;;10.02;4.35;;;;;;;;;;4987231;28;20102;-72
2021/09/08 05:59:24;;;;;;;9.88;3.85;;;;;;;;;;4972431;28;20023;-68
2021/09/08 06:01:50;;;;;;;9.90;3.88;;;;;;;;;;4972990;28;20102;-72
2021/09/08 06:04:16;;;;;;;10.27;3.67;;;;;;;;;;4973645;28;20031;-74
2021/09/08 06:06:42;;;;;;;10.10;4.05;;;;;;;;;;4954964;28;20039;-67
2021/09/08 06:09:08;;;;;;;9.82;4.10;;;;;;;;;;4973526;28;20059;-70
2021/09/08 06:11:34;;;;;;;15.85;4.70;;;;;;;;;;4971816;28;20050;-76
2021/09/08 06:14:01;;;;;;;11.25;3.92;;;;;;;;;;4973279;28;20027;-73
2021/09/08 06:16:27;;;;;;;13.38;3.95;;;;;;;;;;4973136;28;20054;-74
2021/09/08 06:18:53;;;;;;;17.75;4.25;;;;;;;;;;4972823;28;20045;-73
2021/09/08 06:21:20;;;;;;;10.38;4.00;;;;;;;;;;4972158;28;20477;-73
2021/09/08 06:23:49;;;;;;;12.05;4.15;;;;;;;;;;4973120;28;20061;-73
2021/09/08 06:26:15;;;;;;;10.38;3.90;;;;;;;;;;4973131;28;20614;-74
2021/09/08 06:28:41;;;;;;;19.10;4.28;;;;;;;;;;4973055;28;20074;-75
2021/09/08 06:31:07;;;;;;;12.43;4.53;;;;;;;;;;4972344;28;20035;-75
2021/09/08 06:33:33;;;;;;;7.47;3.95;;;;;;;;;;4970700;28;20516;-74
2021/09/08 06:35:59;;;;;;;10.52;4.07;;;;;;;;;;4971064;28;20113;-78
2021/09/08 06:38:25;;;;;;;11.77;3.75;;;;;;;;;;4972243;28;20059;-75
2021/09/08 06:40:53;;;;;;;10.48;3.88;;;;;;;;;;4972628;28;20491;-77
2021/09/08 06:43:19;;;;;;;8.55;4.05;;;;;;;;;;4971247;28;20023;-75
2021/09/08 06:45:45;;;;;;;6.43;3.70;;;;;;;;;;4967934;28;20026;-71
2021/09/08 06:48:11;;;;;;;5.85;3.15;;;;;;;;;;4971774;28;20106;-75
2021/09/08 06:50:39;;;;;;;19.92;5.05;;;;;;;;;;4970410;28;20365;-71
2021/09/08 06:53:05;;;;;;;9.80;3.90;;;;;;;;;;4953719;28;20053;-71
2021/09/08 06:55:34;;;;;;;9.50;4.10;;;;;;;;;;4968982;28;20106;-70
2021/09/08 06:58:00;;;;;;;10.75;3.60;;;;;;;;;;4971986;28;20038;-68
2021/09/08 07:00:26;;;;;;;12.43;3.70;;;;;;;;;;4970900;28;20026;-69
2021/09/08 07:02:52;;;;;;;9.77;3.80;;;;;;;;;;4972332;28;20058;-74
2021/09/08 07:05:27;;;;;;;14.27;3.80;;;;;;;;;;4972197;28;20085;-71
2021/09/08 07:07:53;;;;;;;10.05;3.75;;;;;;;;;;4974748;28;20051;-71
2021/09/08 07:10:19;;;;;;;8.32;3.40;;;;;;;;;;4953669;28;20042;-73
2021/09/08 07:12:45;;;;;;;9.52;3.83;;;;;;;;;;4962283;28;20408;-75
2021/09/08 07:15:38;;;;;;;16.85;3.85;;;;;;;;;;4983916;28;20440;-73
2021/09/08 07:18:11;;;;;;;20.03;3.53;;;;;;;;;;4949421;28;20035;-69
2021/09/08 07:20:40;;;;;;;8.73;3.60;;;;;;;;;;4975570;28;20359;-68
2021/09/08 07:23:06;;;;;;;10.93;3.28;;;;;;;;;;4975769;28;20115;-74
2021/09/08 07:25:35;;;;;;;6.60;2.90;;;;;;;;;;4974116;28;20046;-70
2021/09/08 07:28:07;;;;;;;8.60;3.55;;;;;;;;;;4975217;28;20019;-71
2021/09/08 07:30:45;;;;;;;8.73;3.25;;;;;;;;;;4948507;28;20032;-71
2021/09/08 07:33:16;;;;;;;9.25;3.00;;;;;;;;;;4957106;28;20047;-70
2021/09/08 07:35:42;;;;;;;11.93;3.47;;;;;;;;;;4951507;28;20047;-69
2021/09/08 07:38:08;;;;;;;8.68;3.30;;;;;;;;;;4973508;28;20115;-70
2021/09/08 07:40:55;;;;;;;7.97;3.20;;;;;;;;;;4974804;28;20030;-71
2021/09/08 07:43:34;;;;;;;11.05;3.50;;;;;;;;;;4968771;28;20031;-70
2021/09/08 07:46:00;;;;;;;10.32;3.30;;;;;;;;;;4973502;28;20042;-69
2021/09/08 07:48:34;;;;;;;9.25;3.20;;;;;;;;;;4965458;28;20054;-70
2021/09/08 07:51:00;;;;;;;14.88;3.38;;;;;;;;;;4957540;28;20077;-69
2021/09/08 07:53:27;;;;;;;19.88;3.53;;;;;;;;;;4969468;28;20093;-69
2021/09/08 07:55:53;;;;;;;87.10;6.90;;;;;;;;;;4956939;28;20034;-72
2021/09/08 07:58:19;;;;;;;12.38;3.47;;;;;;;;;;4971298;28;20031;-77
2021/09/08 08:00:45;;;;;;;50.28;5.10;;;;;;;;;;4973397;28;20023;-71
2021/09/08 08:03:11;;;;;;;17.42;3.30;;;;;;;;;;4978184;28;21461;-80
2021/09/08 08:05:37;;;;;;;28.85;4.22;;;;;;;;;;4982292;28;20025;-71
2021/09/08 08:08:03;;;;;;;14.95;3.78;;;;;;;;;;4949834;28;20030;-71
2021/09/08 08:10:41;;;;;;;13.15;3.15;;;;;;;;;;4968776;28;20030;-70
2021/09/08 08:13:07;;;;;;;12.18;3.10;;;;;;;;;;4971828;28;20042;-69
2021/09/08 08:15:36;;;;;;;16.10;3.40;;;;;;;;;;4956804;28;20122;-69
2021/09/08 08:18:02;;;;;;;9.40;3.42;;;;;;;;;;4980447;28;20411;-71
2021/09/08 08:20:28;;;;;;;14.00;3.47;;;;;;;;;;4976660;28;20924;-76
2021/09/08 08:23:13;;;;;;;9.93;3.42;;;;;;;;;;4970238;28;20039;-69
2021/09/08 08:25:39;;;;;;;10.63;3.17;;;;;;;;;;4952596;28;20254;-70
2021/09/08 08:28:06;;;;;;;18.02;3.70;;;;;;;;;;4965879;28;20023;-71
2021/09/08 08:30:35;;;;;;;8.07;3.00;;;;;;;;;;4962191;28;20035;-70
2021/09/08 08:33:02;;;;;;;7.85;3.15;;;;;;;;;;4971582;28;20520;-71
2021/09/08 08:35:28;;;;;;;13.10;3.58;;;;;;;;;;4974793;28;20055;-71
2021/09/08 08:37:54;;;;;;;11.43;3.30;;;;;;;;;;4974167;28;20354;-72
2021/09/08 08:40:21;;;;;;;8.38;2.90;;;;;;;;;;4972393;28;20073;-70
2021/09/08 08:42:56;;;;;;;12.45;3.42;;;;;;;;;;4971914;28;20404;-70
2021/09/08 08:45:34;;;;;;;6.90;3.00;;;;;;;;;;4972519;28;20484;-71
2021/09/08 08:48:00;;;;;;;8.55;3.50;;;;;;;;;;4976716;28;20486;-69
2021/09/08 08:53:31;;;;;;;8.77;3.30;;;;;;;;;;4944003;29;20166;-71
2021/09/08 08:56:00;;;;;;;14.45;3.47;;;;;;;;;;4929509;29;20506;-70
2021/09/08 08:58:26;;;;;;;15.85;3.65;;;;;;;;;;4920577;29;20046;-69
2021/09/08 09:01:11;;;;;;;8.15;3.33;;;;;;;;;;4932953;29;20027;-68
2021/09/08 09:03:37;;;;;;;10.00;3.95;;;;;;;;;;4932371;29;20178;-70
2021/09/08 09:06:04;;;;;;;20.17;4.15;;;;;;;;;;4932776;29;20047;-67
2021/09/08 09:08:33;;;;;;;13.30;3.45;;;;;;;;;;4936787;29;20469;-66
2021/09/08 09:11:00;;;;;;;14.05;3.80;;;;;;;;;;4933380;29;20105;-66
2021/09/08 09:13:32;;;;;;;8.10;3.22;;;;;;;;;;4932344;29;20047;-68
2021/09/08 09:16:08;;;;;;;14.98;4.20;;;;;;;;;;4932277;29;20166;-68
2021/09/08 09:18:43;;;;;;;10.43;3.63;;;;;;;;;;4932331;29;20030;-68
2021/09/08 09:21:10;;;;;;;14.80;3.30;;;;;;;;;;4932486;29;20039;-67
2021/09/08 09:23:53;;;;;;;11.13;3.63;;;;;;;;;;4932117;29;20604;-67
2021/09/08 09:26:32;;;;;;;7.53;3.35;;;;;;;;;;4931941;29;20127;-69
2021/09/08 09:29:12;;;;;;;8.30;3.10;;;;;;;;;;4948554;28;20158;-69
2021/09/08 09:32:27;;;;;;;12.50;3.72;;;;;;;;;;4969968;28;20037;-67
2021/09/08 09:34:59;;;;;;;10.15;3.53;;;;;;;;;;4916875;29;20044;-71
2021/09/08 09:37:25;;;;;;;11.80;3.28;;;;;;;;;;4941721;29;20405;-69
2021/09/08 09:39:51;;;;;;;9.45;3.22;;;;;;;;;;4914656;29;20482;-71
2021/09/08 09:42:22;;;;;;;8.65;3.25;;;;;;;;;;4922107;29;20032;-73
2021/09/08 09:44:48;;;;;;;14.18;3.65;;;;;;;;;;4915795;29;20036;-72
2021/09/08 09:47:15;;;;;;;5.95;3.30;;;;;;;;;;4919073;29;20067;-72
2021/09/08 09:49:41;;;;;;;9.48;3.20;;;;;;;;;;4916759;29;20087;-68
2021/09/08 09:52:07;;;;;;;8.68;3.20;;;;;;;;;;4917182;29;20059;-72
2021/09/08 09:54:33;;;;;;;11.05;3.30;;;;;;;;;;4919600;29;20028;-71
2021/09/08 09:57:00;;;;;;;16.98;3.67;;;;;;;;;;4913973;29;20513;-71
2021/09/08 09:59:26;;;;;;;10.68;3.45;;;;;;;;;;4916349;29;20051;-67
2021/09/08 10:01:52;;;;;;;13.70;3.63;;;;;;;;;;4921897;29;20083;-77
2021/09/08 10:04:18;;;;;;;12.32;3.30;;;;;;;;;;4923054;29;20036;-70
2021/09/08 10:06:44;;;;;;;13.05;3.70;;;;;;;;;;4970293;28;20031;-70
2021/09/08 10:09:16;;;;;;;7.80;3.40;;;;;;;;;;4973597;28;20015;-69
2021/09/08 10:11:45;;;;;;;7.60;3.28;;;;;;;;;;4950916;28;20038;-71
2021/09/08 10:14:16;;;;;;;9.07;3.40;;;;;;;;;;4970399;28;20077;-73
2021/09/08 10:17:06;;;;;;;12.13;3.78;;;;;;;;;;4950814;28;20043;-70
2021/09/08 10:19:32;;;;;;;17.45;3.88;;;;;;;;;;4970255;28;20078;-70
2021/09/08 10:22:31;;;;;;;12.55;3.33;;;;;;;;;;4971623;28;20026;-72
2021/09/08 10:25:09;;;;;;;14.60;3.55;;;;;;;;;;4912877;29;20128;-69
2021/09/08 10:27:35;;;;;;;10.30;3.72;;;;;;;;;;4912684;29;20127;-67
2021/09/08 10:30:02;;;;;;;10.18;4.07;;;;;;;;;;4910143;29;20028;-67
2021/09/08 10:32:28;;;;;;;6.72;3.50;;;;;;;;;;4911879;29;20123;-69
2021/09/08 10:34:54;;;;;;;7.55;3.28;;;;;;;;;;4910683;29;20127;-67
2021/09/08 10:37:21;;;;;;;6.25;3.15;;;;;;;;;;4908765;29;20135;-67
2021/09/08 10:39:48;;;;;;;9.90;3.35;;;;;;;;;;4912005;29;20063;-65
2021/09/08 10:42:37;;;;;;;13.65;3.40;;;;;;;;;;4914171;29;20064;-70
2021/09/08 10:45:16;;;;;;;11.13;3.35;;;;;;;;;;4914232;29;20169;-72
2021/09/08 10:47:42;;;;;;;8.70;3.53;;;;;;;;;;4917482;29;20486;-74
2021/09/08 10:50:15;;;;;;;11.25;4.10;;;;;;;;;;4910506;29;20153;-71
2021/09/08 10:55:47;;;;;;;17.10;3.83;;;;;;;;;;4969634;28;20037;-71
2021/09/08 10:58:16;;;;;;;15.75;3.83;;;;;;;;;;4967858;28;20059;-70
2021/09/08 11:00:43;;;;;;;10.35;4.00;;;;;;;;;;4966380;28;20034;-70
2021/09/08 11:03:26;;;;;;;9.90;3.58;;;;;;;;;;4967460;28;20038;-70
2021/09/08 11:06:01;;;;;;;7.97;3.30;;;;;;;;;;4972691;28;20022;-76
2021/09/08 11:08:29;;;;;;;11.13;4.03;;;;;;;;;;4973158;28;20532;-73
2021/09/08 11:11:10;;;;;;;12.73;3.45;;;;;;;;;;4957979;28;20060;-75
2021/09/08 11:13:37;;;;;;;7.65;3.33;;;;;;;;;;4974976;28;20370;-77
2021/09/08 11:16:15;;;;;;;13.88;3.80;;;;;;;;;;4975192;28;20045;-75
2021/09/08 11:18:41;;;;;;;9.90;3.22;;;;;;;;;;4974142;28;20499;-75
2021/09/08 11:21:07;;;;;;;6.70;3.20;;;;;;;;;;4972535;28;20039;-78
2021/09/08 11:23:34;;;;;;;10.07;3.60;;;;;;;;;;4974588;28;20023;-74
2021/09/08 11:26:15;;;;;;;12.00;3.40;;;;;;;;;;4971064;28;20465;-70
2021/09/08 11:28:44;;;;;;;12.05;4.38;;;;;;;;;;4967383;28;20174;-71
2021/09/08 11:31:11;;;;;;;10.07;3.58;;;;;;;;;;4970073;28;20054;-72
2021/09/08 11:33:37;;;;;;;8.68;3.40;;;;;;;;;;4953810;28;20049;-71
2021/09/08 11:36:40;;;;;;;24.23;4.13;;;;;;;;;;4974531;28;20050;-69
2021/09/08 11:39:13;;;;;;;8.52;3.50;;;;;;;;;;4951220;28;20034;-71
2021/09/08 11:41:52;;;;;;;13.52;4.00;;;;;;;;;;4953754;28;20049;-71
2021/09/08 11:44:18;;;;;;;10.07;3.65;;;;;;;;;;4974777;28;20042;-72
2021/09/08 11:46:47;;;;;;;12.48;3.70;;;;;;;;;;4957308;28;20118;-72
2021/09/08 11:49:17;;;;;;;9.70;3.22;;;;;;;;;;4974738;28;20154;-71
2021/09/08 11:51:44;;;;;;;11.18;3.75;;;;;;;;;;4972935;28;20125;-73
2021/09/08 11:54:21;;;;;;;8.27;3.55;;;;;;;;;;4975698;28;20038;-73
2021/09/08 11:57:01;;;;;;;7.90;3.50;;;;;;;;;;4974836;28;20019;-72
2021/09/08 11:59:29;;;;;;;14.20;3.55;;;;;;;;;;4981136;28;20092;-72
2021/09/08 12:01:55;;;;;;;11.55;3.90;;;;;;;;;;4974656;28;20403;-74
2021/09/08 12:04:23;;;;;;;15.25;3.60;;;;;;;;;;4970167;28;20035;-71
2021/09/08 12:06:55;;;;;;;7.90;3.80;;;;;;;;;;4982225;28;20014;-73
2021/09/08 12:09:24;;;;;;;10.60;4.03;;;;;;;;;;4970504;28;20035;-72
2021/09/08 12:12:01;;;;;;;10.40;3.80;;;;;;;;;;4980758;28;20587;-78
2021/09/08 12:14:56;;;;;;;19.67;3.97;;;;;;;;;;4954744;28;20035;-70
2021/09/08 12:17:23;;;;;;;9.82;3.60;;;;;;;;;;4973861;28;20065;-70
2021/09/08 12:19:57;;;;;;;10.77;3.78;;;;;;;;;;4971864;28;20062;-70
2021/09/08 12:22:31;;;;;;;10.30;3.60;;;;;;;;;;4955627;28;20042;-71
2021/09/08 12:25:00;;;;;;;10.18;3.60;;;;;;;;;;4954070;28;20023;-69
2021/09/08 12:27:28;;;;;;;14.77;3.80;;;;;;;;;;4971161;28;20038;-68
2021/09/08 12:29:55;;;;;;;5.97;3.38;;;;;;;;;;4971924;28;20287;-68
2021/09/08 12:32:21;;;;;;;7.90;3.67;;;;;;;;;;4971641;28;20049;-69
2021/09/08 12:34:48;;;;;;;13.43;3.88;;;;;;;;;;4974465;28;20048;-69
2021/09/08 12:37:15;;;;;;;9.40;3.45;;;;;;;;;;4972144;28;20054;-69
2021/09/08 12:39:51;;;;;;;7.93;3.47;;;;;;;;;;4970702;28;20026;-68
2021/09/08 12:42:23;;;;;;;7.80;3.65;;;;;;;;;;4968597;28;20026;-69
2021/09/08 12:44:49;;;;;;;10.27;3.40;;;;;;;;;;4971198;28;20023;-69
2021/09/08 12:47:19;;;;;;;11.82;3.58;;;;;;;;;;4972943;28;20099;-69
2021/09/08 12:49:46;;;;;;;9.30;3.25;;;;;;;;;;4972331;28;21257;-70
2021/09/08 12:52:16;;;;;;;13.15;4.05;;;;;;;;;;4972166;28;20070;-71
2021/09/08 13:00:50;;;;;;;9.77;3.47;;;;;;;;;;5375553;23;20070;-75
2021/09/08 13:03:18;;;;;;;6.13;3.35;;;;;;;;;;4944149;28;20042;-74
2021/09/08 13:05:50;;;;;;;7.68;3.70;;;;;;;;;;4963636;28;20056;-69
2021/09/08 13:08:19;;;;;;;5.47;3.35;;;;;;;;;;4968961;28;20022;-75
2021/09/08 13:10:45;;;;;;;9.07;3.97;;;;;;;;;;4974070;28;20038;-85
2021/09/08 13:13:18;;;;;;;10.07;3.95;;;;;;;;;;4973991;28;20067;-79
2021/09/08 13:16:13;;;;;;;8.73;3.67;;;;;;;;;;4951949;28;20026;-75
2021/09/08 13:18:43;;;;;;;7.13;3.58;;;;;;;;;;4953586;28;20098;-82
2021/09/08 13:21:18;;;;;;;9.45;3.90;;;;;;;;;;4959784;28;20103;-82
2021/09/08 13:27:08;;;;;;;8.80;4.43;;;;;;;;;;4876894;29;20041;-70
2021/09/08 13:29:38;;;;;;;13.88;4.32;;;;;;;;;;4876769;29;20359;-73
2021/09/08 13:32:04;;;;;;;9.95;3.58;;;;;;;;;;4877340;29;20043;-68
2021/09/08 13:34:30;;;;;;;9.38;3.72;;;;;;;;;;4877856;29;20491;-76
2021/09/08 13:36:56;;;;;;;11.98;4.00;;;;;;;;;;4875900;29;20044;-85
2021/09/08 13:39:25;;;;;;;8.57;3.88;;;;;;;;;;4878840;29;20037;-89
2021/09/08 13:41:54;;;;;;;8.80;3.63;;;;;;;;;;4876784;29;20036;-72
2021/09/08 13:44:20;;;;;;;12.10;3.67;;;;;;;;;;4888050;29;20036;-86
2021/09/08 13:46:48;;;;;;;12.77;3.80;;;;;;;;;;4877385;29;20037;-76
2021/09/08 13:49:14;;;;;;;6.35;3.72;;;;;;;;;;4876812;29;20754;-85
2021/09/08 13:51:40;;;;;;;7.38;3.65;;;;;;;;;;4892450;29;20056;-82
2021/09/08 13:54:06;;;;;;;6.85;3.88;;;;;;;;;;4876264;29;20049;-89
2021/09/08 13:56:44;;;;;;;12.55;4.15;;;;;;;;;;4880495;29;20052;-87
2021/09/08 13:59:10;;;;;;;7.47;3.63;;;;;;;;;;4869411;29;20033;-89
2021/09/08 14:01:36;;;;;;;11.15;3.65;;;;;;;;;;4888831;29;20131;-90
2021/09/08 14:04:02;;;;;;;13.50;3.75;;;;;;;;;;4906378;29;20042;-85
2021/09/08 14:06:28;;;;;;;12.40;3.90;;;;;;;;;;4945636;29;20023;-84
2021/09/08 14:09:07;;;;;;;9.77;3.78;;;;;;;;;;4939540;29;20371;-90
2021/09/08 14:11:33;;;;;;;15.98;4.05;;;;;;;;;;4946707;29;20466;-89
2021/09/08 14:13:59;;;;;;;12.02;3.55;;;;;;;;;;4923375;28;20040;-80
2021/09/08 14:16:28;;;;;;;10.73;3.50;;;;;;;;;;4937252;29;20031;-87
2021/09/08 14:18:54;;;;;;;11.45;4.30;;;;;;;;;;4944548;29;20074;-87
2021/09/08 14:21:20;;;;;;;14.15;4.18;;;;;;;;;;4940735;29;20473;-75
2021/09/08 14:23:46;;;;;;;11.93;4.35;;;;;;;;;;4949632;29;20035;-76
2021/09/08 14:26:15;;;;;;;24.55;4.55;;;;;;;;;;4947135;29;20038;-75
2021/09/08 14:28:41;;;;;;;10.60;3.88;;;;;;;;;;4934924;29;20043;-73
2021/09/08 14:31:08;;;;;;;9.60;3.67;;;;;;;;;;4944831;29;20398;-73
2021/09/08 14:33:34;;;;;;;12.15;3.92;;;;;;;;;;4942581;29;20056;-73
2021/09/08 14:36:02;;;;;;;13.25;4.10;;;;;;;;;;4936133;29;20118;-89
2021/09/08 14:38:28;;;;;;;10.55;3.72;;;;;;;;;;4941266;29;20172;-87
2021/09/08 14:40:59;;;;;;;10.10;3.45;;;;;;;;;;4923356;29;20075;-83
2021/09/08 14:43:25;;;;;;;11.05;3.78;;;;;;;;;;4932059;29;20070;-78
2021/09/08 14:46:11;;;;;;;10.60;3.50;;;;;;;;;;4922018;29;20028;-77
2021/09/08 14:48:37;;;;;;;14.32;3.80;;;;;;;;;;4918212;29;20074;-80
2021/09/08 14:51:04;;;;;;;15.48;4.00;;;;;;;;;;4932413;29;20028;-70
2021/09/08 14:53:30;;;;;;;9.98;3.33;;;;;;;;;;4932306;29;20119;-74
2021/09/08 14:55:57;;;;;;;8.45;3.42;;;;;;;;;;4927145;29;20051;-82
2021/09/08 14:58:23;;;;;;;13.70;3.70;;;;;;;;;;4924749;29;20074;-78
2021/09/08 15:00:49;;;;;;;7.93;3.78;;;;;;;;;;4932187;29;20024;-71
2021/09/08 15:03:20;;;;;;;15.82;3.90;;;;;;;;;;4919038;29;20051;-77